sensor_id;sensor_type;location;lat;lon;timestamp;pressure;altitude;pressure_sealevel;temperature;humidity
25722;BME280;13578;53.450;15.496;2023-06-10T00:02:55;99920.41;;;16.20;100.00
25722;BME280;13578;53.450;15.496;2023-06-10T00:05:56;99935.47;;;16.17;100.00
25722;BME280;13578;53.450;15.496;2023-06-10T00:08:56;99937.22;;;16.18;100.00
25722;BME280;13578;53.450;15.496;2023-06-10T00:11:57;99941.34;;;16.14;100.00
25722;BME280;13578;53.450;15.496;2023-06-10T00:15:00;99943.94;;;16.16;100.00
25722;BME280;13578;53.450;15.496;2023-06-10T00:18:00;99936.31;;;16.18;100.00
25722;BME280;13578;53.450;15.496;2023-06-10T00:21:02;99938.41;;;16.08;100.00
25722;BME280;13578;53.450;15.496;2023-06-10T00:24:06;99946.38;;;16.19;100.00
25722;BME280;13578;53.450;15.496;2023-06-10T00:27:06;99951.56;;;16.14;100.00
25722;BME280;13578;53.450;15.496;2023-06-10T00:30:07;99944.09;;;16.06;100.00
25722;BME280;13578;53.450;15.496;2023-06-10T00:33:08;99945.84;;;16.07;100.00
25722;BME280;13578;53.450;15.496;2023-06-10T00:36:10;99937.38;;;16.00;100.00
25722;BME280;13578;53.450;15.496;2023-06-10T00:39:10;99932.00;;;16.07;100.00
25722;BME280;13578;53.450;15.496;2023-06-10T00:42:11;99939.25;;;16.00;100.00
25722;BME280;13578;53.450;15.496;2023-06-10T00:45:12;99939.94;;;15.94;100.00
25722;BME280;13578;53.450;15.496;2023-06-10T00:48:12;99938.72;;;15.96;100.00
25722;BME280;13578;53.450;15.496;2023-06-10T00:51:13;99925.78;;;15.97;100.00
25722;BME280;13578;53.450;15.496;2023-06-10T00:54:14;99933.91;;;15.98;100.00
25722;BME280;13578;53.450;15.496;2023-06-10T00:57:15;99944.28;;;16.04;100.00
25722;BME280;13578;53.450;15.496;2023-06-10T01:00:16;99942.53;;;16.03;100.00
25722;BME280;13578;53.450;15.496;2023-06-10T01:03:17;99937.00;;;15.95;100.00
25722;BME280;13578;53.450;15.496;2023-06-10T01:06:41;99945.28;;;15.87;100.00
25722;BME280;13578;53.450;15.496;2023-06-10T01:13:09;99959.13;;;15.95;100.00
25722;BME280;13578;53.450;15.496;2023-06-10T01:16:11;99953.59;;;15.95;100.00
25722;BME280;13578;53.450;15.496;2023-06-10T01:19:13;99961.03;;;15.86;100.00
25722;BME280;13578;53.450;15.496;2023-06-10T01:22:15;99965.34;;;15.89;100.00
25722;BME280;13578;53.450;15.496;2023-06-10T01:25:17;99959.63;;;15.91;100.00
25722;BME280;13578;53.450;15.496;2023-06-10T01:28:24;99959.31;;;15.94;100.00
25722;BME280;13578;53.450;15.496;2023-06-10T01:31:43;99967.41;;;15.87;100.00
25722;BME280;13578;53.450;15.496;2023-06-10T01:34:48;99960.59;;;15.73;100.00
25722;BME280;13578;53.450;15.496;2023-06-10T01:37:50;99950.06;;;15.77;100.00
25722;BME280;13578;53.450;15.496;2023-06-10T01:40:53;99956.81;;;15.74;100.00
25722;BME280;13578;53.450;15.496;2023-06-10T01:43:55;99966.97;;;15.65;100.00
25722;BME280;13578;53.450;15.496;2023-06-10T01:46:56;99968.03;;;15.72;100.00
25722;BME280;13578;53.450;15.496;2023-06-10T01:49:57;99965.75;;;15.68;100.00
25722;BME280;13578;53.450;15.496;2023-06-10T01:52:59;99978.53;;;15.61;100.00
25722;BME280;13578;53.450;15.496;2023-06-10T01:56:00;99980.25;;;15.62;100.00
25722;BME280;13578;53.450;15.496;2023-06-10T01:59:00;99987.34;;;15.64;100.00
25722;BME280;13578;53.450;15.496;2023-06-10T02:02:01;99987.53;;;15.63;100.00
25722;BME280;13578;53.450;15.496;2023-06-10T02:05:01;99976.97;;;15.58;100.00
25722;BME280;13578;53.450;15.496;2023-06-10T02:08:02;99996.72;;;15.63;100.00
25722;BME280;13578;53.450;15.496;2023-06-10T02:11:03;99987.88;;;15.60;100.00
25722;BME280;13578;53.450;15.496;2023-06-10T02:14:03;99979.88;;;15.48;100.00
25722;BME280;13578;53.450;15.496;2023-06-10T02:17:04;99978.63;;;15.43;100.00
25722;BME280;13578;53.450;15.496;2023-06-10T02:20:06;99983.88;;;15.54;100.00
25722;BME280;13578;53.450;15.496;2023-06-10T02:23:07;99989.19;;;15.47;100.00
25722;BME280;13578;53.450;15.496;2023-06-10T02:26:08;99989.13;;;15.31;100.00
25722;BME280;13578;53.450;15.496;2023-06-10T02:29:08;99989.28;;;15.29;100.00
25722;BME280;13578;53.450;15.496;2023-06-10T02:32:09;99987.66;;;15.18;100.00
25722;BME280;13578;53.450;15.496;2023-06-10T02:35:10;99993.31;;;15.08;100.00
25722;BME280;13578;53.450;15.496;2023-06-10T02:38:12;99995.75;;;15.12;100.00
25722;BME280;13578;53.450;15.496;2023-06-10T02:41:13;99982.75;;;15.04;100.00
25722;BME280;13578;53.450;15.496;2023-06-10T02:44:13;99988.38;;;14.94;100.00
25722;BME280;13578;53.450;15.496;2023-06-10T02:47:14;99980.75;;;14.88;100.00
25722;BME280;13578;53.450;15.496;2023-06-10T02:50:15;100000.16;;;14.96;100.00
25722;BME280;13578;53.450;15.496;2023-06-10T02:53:16;99994.44;;;14.98;100.00
25722;BME280;13578;53.450;15.496;2023-06-10T02:56:17;99987.13;;;14.88;100.00
25722;BME280;13578;53.450;15.496;2023-06-10T02:59:18;99989.63;;;15.00;100.00
25722;BME280;13578;53.450;15.496;2023-06-10T03:02:19;99999.97;;;14.98;100.00
25722;BME280;13578;53.450;15.496;2023-06-10T03:05:20;99986.34;;;14.96;100.00
25722;BME280;13578;53.450;15.496;2023-06-10T03:08:21;99999.84;;;15.07;100.00
25722;BME280;13578;53.450;15.496;2023-06-10T03:11:22;99997.81;;;15.09;100.00
25722;BME280;13578;53.450;15.496;2023-06-10T03:14:23;99992.03;;;15.29;100.00
25722;BME280;13578;53.450;15.496;2023-06-10T03:17:25;99997.66;;;15.46;100.00
25722;BME280;13578;53.450;15.496;2023-06-10T03:20:25;100003.59;;;15.59;100.00
25722;BME280;13578;53.450;15.496;2023-06-10T03:23:28;100005.03;;;15.71;100.00
25722;BME280;13578;53.450;15.496;2023-06-10T03:26:29;100003.00;;;15.82;100.00
25722;BME280;13578;53.450;15.496;2023-06-10T03:29:30;99991.72;;;15.75;100.00
25722;BME280;13578;53.450;15.496;2023-06-10T03:32:31;100002.19;;;15.98;100.00
25722;BME280;13578;53.450;15.496;2023-06-10T03:35:31;99994.81;;;16.07;100.00
25722;BME280;13578;53.450;15.496;2023-06-10T03:38:32;99996.56;;;16.24;100.00
25722;BME280;13578;53.450;15.496;2023-06-10T03:41:33;100004.53;;;16.27;100.00
25722;BME280;13578;53.450;15.496;2023-06-10T03:44:34;100004.19;;;16.39;100.00
25722;BME280;13578;53.450;15.496;2023-06-10T03:47:35;100004.56;;;16.44;100.00
25722;BME280;13578;53.450;15.496;2023-06-10T03:50:38;100012.34;;;16.57;100.00
25722;BME280;13578;53.450;15.496;2023-06-10T03:53:39;100014.06;;;16.58;100.00
25722;BME280;13578;53.450;15.496;2023-06-10T03:56:39;100010.28;;;16.59;100.00
25722;BME280;13578;53.450;15.496;2023-06-10T03:59:40;100017.38;;;16.61;100.00
25722;BME280;13578;53.450;15.496;2023-06-10T04:02:41;100021.88;;;16.62;100.00
25722;BME280;13578;53.450;15.496;2023-06-10T04:05:46;100030.38;;;16.77;100.00
25722;BME280;13578;53.450;15.496;2023-06-10T04:08:46;100027.09;;;16.74;100.00
25722;BME280;13578;53.450;15.496;2023-06-10T04:11:47;100035.59;;;16.97;100.00
25722;BME280;13578;53.450;15.496;2023-06-10T04:15:16;100030.38;;;16.94;100.00
25722;BME280;13578;53.450;15.496;2023-06-10T04:18:17;100042.50;;;16.93;100.00
25722;BME280;13578;53.450;15.496;2023-06-10T04:21:19;100033.63;;;16.89;100.00
25722;BME280;13578;53.450;15.496;2023-06-10T04:24:19;100037.81;;;17.18;100.00
25722;BME280;13578;53.450;15.496;2023-06-10T04:27:20;100040.94;;;17.15;100.00
25722;BME280;13578;53.450;15.496;2023-06-10T04:30:21;100038.66;;;17.27;100.00
25722;BME280;13578;53.450;15.496;2023-06-10T04:33:21;100043.31;;;17.35;100.00
25722;BME280;13578;53.450;15.496;2023-06-10T04:36:22;100050.56;;;17.52;100.00
25722;BME280;13578;53.450;15.496;2023-06-10T04:39:23;100040.63;;;17.66;100.00
25722;BME280;13578;53.450;15.496;2023-06-10T04:42:24;100043.44;;;17.58;100.00
25722;BME280;13578;53.450;15.496;2023-06-10T04:45:25;100040.22;;;17.21;100.00
25722;BME280;13578;53.450;15.496;2023-06-10T04:48:25;100055.31;;;16.94;100.00
25722;BME280;13578;53.450;15.496;2023-06-10T04:51:27;100058.09;;;17.19;100.00
25722;BME280;13578;53.450;15.496;2023-06-10T04:54:28;100062.25;;;16.90;100.00
25722;BME280;13578;53.450;15.496;2023-06-10T04:57:28;100062.09;;;17.16;100.00
25722;BME280;13578;53.450;15.496;2023-06-10T05:00:29;100065.66;;;17.58;100.00
25722;BME280;13578;53.450;15.496;2023-06-10T05:03:30;100061.31;;;18.03;100.00
25722;BME280;13578;53.450;15.496;2023-06-10T05:06:30;100067.44;;;17.99;100.00
25722;BME280;13578;53.450;15.496;2023-06-10T05:09:31;100071.13;;;18.22;100.00
25722;BME280;13578;53.450;15.496;2023-06-10T05:12:33;100069.94;;;18.48;100.00
25722;BME280;13578;53.450;15.496;2023-06-10T05:15:33;100072.63;;;18.65;100.00
25722;BME280;13578;53.450;15.496;2023-06-10T05:18:34;100073.28;;;18.67;100.00
25722;BME280;13578;53.450;15.496;2023-06-10T05:21:36;100070.50;;;18.67;100.00
25722;BME280;13578;53.450;15.496;2023-06-10T05:24:36;100058.88;;;18.63;100.00
25722;BME280;13578;53.450;15.496;2023-06-10T05:27:37;100071.81;;;18.79;100.00
25722;BME280;13578;53.450;15.496;2023-06-10T05:30:38;100086.91;;;19.08;100.00
25722;BME280;13578;53.450;15.496;2023-06-10T05:33:39;100075.94;;;19.07;100.00
25722;BME280;13578;53.450;15.496;2023-06-10T05:36:40;100080.53;;;19.23;100.00
25722;BME280;13578;53.450;15.496;2023-06-10T05:39:41;100079.00;;;19.35;100.00
25722;BME280;13578;53.450;15.496;2023-06-10T05:42:42;100078.03;;;19.43;100.00
25722;BME280;13578;53.450;15.496;2023-06-10T05:45:42;100072.50;;;19.58;100.00
25722;BME280;13578;53.450;15.496;2023-06-10T05:48:43;100067.22;;;19.63;100.00
25722;BME280;13578;53.450;15.496;2023-06-10T05:51:44;100061.28;;;19.66;100.00
25722;BME280;13578;53.450;15.496;2023-06-10T05:54:44;100060.41;;;19.65;100.00
25722;BME280;13578;53.450;15.496;2023-06-10T05:57:46;100066.16;;;19.79;100.00
25722;BME280;13578;53.450;15.496;2023-06-10T06:00:46;100066.75;;;19.59;100.00
25722;BME280;13578;53.450;15.496;2023-06-10T06:03:47;100072.81;;;19.93;100.00
25722;BME280;13578;53.450;15.496;2023-06-10T06:06:47;100077.72;;;20.42;100.00
25722;BME280;13578;53.450;15.496;2023-06-10T06:09:48;100067.03;;;20.46;100.00
25722;BME280;13578;53.450;15.496;2023-06-10T06:12:49;100060.63;;;20.45;100.00
25722;BME280;13578;53.450;15.496;2023-06-10T06:15:50;100060.50;;;20.54;100.00
25722;BME280;13578;53.450;15.496;2023-06-10T06:18:50;100060.03;;;20.50;100.00
25722;BME280;13578;53.450;15.496;2023-06-10T06:21:51;100060.44;;;20.69;100.00
25722;BME280;13578;53.450;15.496;2023-06-10T06:24:52;100064.25;;;20.83;100.00
25722;BME280;13578;53.450;15.496;2023-06-10T06:27:53;100066.13;;;20.97;100.00
25722;BME280;13578;53.450;15.496;2023-06-10T06:30:53;100088.28;;;21.27;100.00
25722;BME280;13578;53.450;15.496;2023-06-10T06:33:54;100081.94;;;21.40;100.00
25722;BME280;13578;53.450;15.496;2023-06-10T06:36:55;100080.88;;;21.69;100.00
25722;BME280;13578;53.450;15.496;2023-06-10T06:39:58;100076.50;;;21.88;100.00
25722;BME280;13578;53.450;15.496;2023-06-10T06:42:58;100089.63;;;21.88;100.00
25722;BME280;13578;53.450;15.496;2023-06-10T06:46:01;100082.75;;;21.97;100.00
25722;BME280;13578;53.450;15.496;2023-06-10T06:49:03;100081.38;;;22.15;99.33
25722;BME280;13578;53.450;15.496;2023-06-10T06:52:04;100094.56;;;22.34;99.94
25722;BME280;13578;53.450;15.496;2023-06-10T06:55:12;100086.31;;;22.61;96.99
25722;BME280;13578;53.450;15.496;2023-06-10T06:58:23;100093.19;;;22.65;95.63
25722;BME280;13578;53.450;15.496;2023-06-10T07:01:30;100110.88;;;22.79;96.65
25722;BME280;13578;53.450;15.496;2023-06-10T07:04:34;100123.50;;;22.62;94.25
25722;BME280;13578;53.450;15.496;2023-06-10T07:07:36;100128.75;;;22.85;94.88
25722;BME280;13578;53.450;15.496;2023-06-10T07:10:37;100124.47;;;23.09;91.67
25722;BME280;13578;53.450;15.496;2023-06-10T07:13:38;100131.88;;;23.30;91.52
25722;BME280;13578;53.450;15.496;2023-06-10T07:16:39;100140.28;;;23.51;88.38
25722;BME280;13578;53.450;15.496;2023-06-10T07:19:40;100137.91;;;23.68;87.95
25722;BME280;13578;53.450;15.496;2023-06-10T07:22:42;100151.69;;;23.76;86.94
25722;BME280;13578;53.450;15.496;2023-06-10T07:25:44;100149.72;;;24.10;84.57
25722;BME280;13578;53.450;15.496;2023-06-10T07:28:46;100146.94;;;24.03;81.40
25722;BME280;13578;53.450;15.496;2023-06-10T07:31:48;100144.34;;;24.02;76.20
25722;BME280;13578;53.450;15.496;2023-06-10T07:34:52;100154.44;;;24.16;76.04
25722;BME280;13578;53.450;15.496;2023-06-10T07:37:57;100157.66;;;24.20;74.45
25722;BME280;13578;53.450;15.496;2023-06-10T07:41:20;100157.19;;;24.43;72.66
25722;BME280;13578;53.450;15.496;2023-06-10T07:44:23;100160.72;;;24.77;72.29
25722;BME280;13578;53.450;15.496;2023-06-10T07:47:27;100154.97;;;24.58;68.16
25722;BME280;13578;53.450;15.496;2023-06-10T07:50:34;100153.19;;;24.71;66.71
25722;BME280;13578;53.450;15.496;2023-06-10T07:54:00;100163.50;;;24.84;67.34
25722;BME280;13578;53.450;15.496;2023-06-10T07:57:05;100166.78;;;25.13;64.08
25722;BME280;13578;53.450;15.496;2023-06-10T08:00:08;100166.81;;;24.74;64.84
25722;BME280;13578;53.450;15.496;2023-06-10T08:03:31;100155.44;;;24.49;61.29
25722;BME280;13578;53.450;15.496;2023-06-10T08:06:43;100169.38;;;24.69;61.27
25722;BME280;13578;53.450;15.496;2023-06-10T08:09:45;100167.13;;;24.91;61.88
25722;BME280;13578;53.450;15.496;2023-06-10T08:12:47;100160.94;;;25.14;61.52
25722;BME280;13578;53.450;15.496;2023-06-10T08:15:50;100165.84;;;25.58;60.54
25722;BME280;13578;53.450;15.496;2023-06-10T08:18:59;100167.22;;;25.74;59.25
25722;BME280;13578;53.450;15.496;2023-06-10T08:22:15;100163.72;;;25.78;58.74
25722;BME280;13578;53.450;15.496;2023-06-10T08:25:21;100174.94;;;26.04;58.73
25722;BME280;13578;53.450;15.496;2023-06-10T08:28:46;100176.34;;;26.20;58.02
25722;BME280;13578;53.450;15.496;2023-06-10T08:32:21;100167.59;;;26.28;57.98
25722;BME280;13578;53.450;15.496;2023-06-10T08:35:31;100160.94;;;26.41;56.33
25722;BME280;13578;53.450;15.496;2023-06-10T08:38:56;100168.50;;;26.59;56.74
25722;BME280;13578;53.450;15.496;2023-06-10T08:42:54;100170.84;;;26.81;55.85
25722;BME280;13578;53.450;15.496;2023-06-10T08:45:59;100168.03;;;26.62;55.86
25722;BME280;13578;53.450;15.496;2023-06-10T08:49:03;100164.41;;;25.99;53.72
25722;BME280;13578;53.450;15.496;2023-06-10T08:52:06;100173.28;;;26.21;55.17
25722;BME280;13578;53.450;15.496;2023-06-10T08:55:32;100170.50;;;25.71;53.95
25722;BME280;13578;53.450;15.496;2023-06-10T08:58:33;100167.44;;;25.97;55.40
25722;BME280;13578;53.450;15.496;2023-06-10T09:01:40;100170.47;;;26.40;53.61
25722;BME280;13578;53.450;15.496;2023-06-10T09:04:43;100167.28;;;26.55;54.19
25722;BME280;13578;53.450;15.496;2023-06-10T09:07:46;100173.16;;;26.53;52.69
25722;BME280;13578;53.450;15.496;2023-06-10T09:10:48;100179.94;;;26.64;52.53
25722;BME280;13578;53.450;15.496;2023-06-10T09:13:50;100171.78;;;26.37;53.78
25722;BME280;13578;53.450;15.496;2023-06-10T09:16:50;100191.47;;;26.74;54.24
25722;BME280;13578;53.450;15.496;2023-06-10T09:19:52;100177.66;;;26.17;52.96
25722;BME280;13578;53.450;15.496;2023-06-10T09:22:55;100184.97;;;25.93;55.01
25722;BME280;13578;53.450;15.496;2023-06-10T09:25:57;100196.41;;;25.98;54.90
25722;BME280;13578;53.450;15.496;2023-06-10T09:29:05;100189.31;;;26.21;54.22
25722;BME280;13578;53.450;15.496;2023-06-10T09:32:07;100195.25;;;26.50;54.54
25722;BME280;13578;53.450;15.496;2023-06-10T09:35:10;100184.31;;;26.60;54.46
25722;BME280;13578;53.450;15.496;2023-06-10T09:38:11;100192.56;;;26.36;53.86
25722;BME280;13578;53.450;15.496;2023-06-10T09:41:12;100194.34;;;25.87;54.22
25722;BME280;13578;53.450;15.496;2023-06-10T09:44:17;100207.56;;;26.11;54.54
25722;BME280;13578;53.450;15.496;2023-06-10T09:47:22;100192.13;;;26.58;54.30
25722;BME280;13578;53.450;15.496;2023-06-10T09:50:22;100185.47;;;26.34;51.76
25722;BME280;13578;53.450;15.496;2023-06-10T09:53:24;100186.34;;;26.34;53.75
25722;BME280;13578;53.450;15.496;2023-06-10T09:56:37;100182.97;;;26.00;51.68
25722;BME280;13578;53.450;15.496;2023-06-10T09:59:38;100184.25;;;26.04;52.09
25722;BME280;13578;53.450;15.496;2023-06-10T10:02:49;100176.97;;;25.71;52.33
25722;BME280;13578;53.450;15.496;2023-06-10T10:05:58;100174.63;;;26.19;52.29
25722;BME280;13578;53.450;15.496;2023-06-10T10:08:59;100183.97;;;26.31;56.04
25722;BME280;13578;53.450;15.496;2023-06-10T10:12:01;100195.09;;;26.44;56.57
25722;BME280;13578;53.450;15.496;2023-06-10T10:15:03;100178.00;;;26.46;52.61
25722;BME280;13578;53.450;15.496;2023-06-10T10:18:14;100172.44;;;26.21;50.46
25722;BME280;13578;53.450;15.496;2023-06-10T10:21:21;100183.75;;;26.14;50.77
25722;BME280;13578;53.450;15.496;2023-06-10T10:24:26;100178.84;;;26.65;50.52
25722;BME280;13578;53.450;15.496;2023-06-10T10:27:43;100180.06;;;27.06;49.32
25722;BME280;13578;53.450;15.496;2023-06-10T10:30:49;100178.78;;;27.33;48.55
25722;BME280;13578;53.450;15.496;2023-06-10T10:34:00;100179.38;;;27.53;49.15
25722;BME280;13578;53.450;15.496;2023-06-10T10:37:02;100182.38;;;27.40;48.07
25722;BME280;13578;53.450;15.496;2023-06-10T10:40:04;100185.19;;;27.40;48.24
25722;BME280;13578;53.450;15.496;2023-06-10T10:43:05;100187.81;;;26.92;48.05
25722;BME280;13578;53.450;15.496;2023-06-10T10:46:12;100173.03;;;26.97;47.84
25722;BME280;13578;53.450;15.496;2023-06-10T10:49:13;100174.56;;;27.11;47.66
25722;BME280;13578;53.450;15.496;2023-06-10T10:52:15;100174.75;;;27.40;49.68
25722;BME280;13578;53.450;15.496;2023-06-10T10:55:16;100169.44;;;27.51;47.16
25722;BME280;13578;53.450;15.496;2023-06-10T10:58:16;100158.91;;;27.58;45.66
25722;BME280;13578;53.450;15.496;2023-06-10T11:01:26;100171.78;;;27.66;45.88
25722;BME280;13578;53.450;15.496;2023-06-10T11:04:47;100167.88;;;27.79;44.96
25722;BME280;13578;53.450;15.496;2023-06-10T11:07:55;100167.75;;;27.73;44.46
25722;BME280;13578;53.450;15.496;2023-06-10T11:10:59;100158.19;;;27.32;44.58
25722;BME280;13578;53.450;15.496;2023-06-10T11:17:20;100157.91;;;27.52;44.44
25722;BME280;13578;53.450;15.496;2023-06-10T11:20:51;100159.19;;;27.38;44.69
25722;BME280;13578;53.450;15.496;2023-06-10T11:24:14;100153.50;;;27.45;43.58
25722;BME280;13578;53.450;15.496;2023-06-10T11:27:19;100153.69;;;27.31;42.74
25722;BME280;13578;53.450;15.496;2023-06-10T11:30:25;100148.28;;;27.30;42.56
25722;BME280;13578;53.450;15.496;2023-06-10T11:33:29;100159.81;;;27.40;42.29
25722;BME280;13578;53.450;15.496;2023-06-10T11:36:38;100146.28;;;27.61;42.46
25722;BME280;13578;53.450;15.496;2023-06-10T11:39:44;100143.84;;;27.64;41.48
25722;BME280;13578;53.450;15.496;2023-06-10T11:42:45;100138.31;;;27.46;40.60
25722;BME280;13578;53.450;15.496;2023-06-10T11:45:46;100147.78;;;27.75;42.67
25722;BME280;13578;53.450;15.496;2023-06-10T11:48:52;100153.44;;;27.87;42.94
25722;BME280;13578;53.450;15.496;2023-06-10T11:51:53;100146.78;;;27.46;41.71
25722;BME280;13578;53.450;15.496;2023-06-10T11:54:55;100140.16;;;27.52;42.63
25722;BME280;13578;53.450;15.496;2023-06-10T11:57:56;100121.81;;;27.31;41.86
25722;BME280;13578;53.450;15.496;2023-06-10T12:00:58;100145.91;;;27.57;43.11
25722;BME280;13578;53.450;15.496;2023-06-10T12:04:00;100137.59;;;27.74;42.53
25722;BME280;13578;53.450;15.496;2023-06-10T12:07:01;100134.38;;;27.47;42.28
25722;BME280;13578;53.450;15.496;2023-06-10T12:10:01;100130.28;;;27.31;41.65
25722;BME280;13578;53.450;15.496;2023-06-10T12:13:03;100137.97;;;27.66;41.38
25722;BME280;13578;53.450;15.496;2023-06-10T12:16:08;100144.44;;;27.42;41.74
25722;BME280;13578;53.450;15.496;2023-06-10T12:19:09;100138.63;;;27.37;42.02
25722;BME280;13578;53.450;15.496;2023-06-10T12:22:10;100136.38;;;27.16;41.97
25722;BME280;13578;53.450;15.496;2023-06-10T12:25:11;100153.00;;;27.48;42.51
25722;BME280;13578;53.450;15.496;2023-06-10T12:28:13;100140.91;;;27.59;42.28
25722;BME280;13578;53.450;15.496;2023-06-10T12:31:13;100132.59;;;27.22;41.45
25722;BME280;13578;53.450;15.496;2023-06-10T12:34:14;100130.13;;;26.83;42.20
25722;BME280;13578;53.450;15.496;2023-06-10T12:37:15;100135.59;;;26.78;41.99
25722;BME280;13578;53.450;15.496;2023-06-10T12:40:17;100143.47;;;27.18;43.77
25722;BME280;13578;53.450;15.496;2023-06-10T12:43:20;100134.56;;;27.76;42.87
25722;BME280;13578;53.450;15.496;2023-06-10T12:46:21;100138.13;;;27.83;42.49
25722;BME280;13578;53.450;15.496;2023-06-10T12:49:23;100125.53;;;27.31;40.81
25722;BME280;13578;53.450;15.496;2023-06-10T12:52:24;100132.09;;;27.25;41.31
25722;BME280;13578;53.450;15.496;2023-06-10T12:55:25;100119.44;;;27.46;41.26
25722;BME280;13578;53.450;15.496;2023-06-10T12:58:26;100118.41;;;27.40;41.34
25722;BME280;13578;53.450;15.496;2023-06-10T13:01:27;100108.81;;;27.18;40.41
25722;BME280;13578;53.450;15.496;2023-06-10T13:04:28;100113.75;;;27.34;40.68
25722;BME280;13578;53.450;15.496;2023-06-10T13:07:28;100113.38;;;27.31;41.13
25722;BME280;13578;53.450;15.496;2023-06-10T13:10:31;100125.22;;;27.75;42.27
25722;BME280;13578;53.450;15.496;2023-06-10T13:13:31;100111.63;;;27.60;41.43
25722;BME280;13578;53.450;15.496;2023-06-10T13:16:32;100118.59;;;27.57;42.84
25722;BME280;13578;53.450;15.496;2023-06-10T13:19:33;100120.78;;;27.44;42.67
25722;BME280;13578;53.450;15.496;2023-06-10T13:22:34;100110.63;;;27.42;41.70
25722;BME280;13578;53.450;15.496;2023-06-10T13:25:36;100112.72;;;27.47;43.00
25722;BME280;13578;53.450;15.496;2023-06-10T13:28:37;100108.81;;;27.60;42.75
25722;BME280;13578;53.450;15.496;2023-06-10T13:31:38;100095.66;;;27.54;41.35
25722;BME280;13578;53.450;15.496;2023-06-10T13:34:39;100106.59;;;27.62;43.01
25722;BME280;13578;53.450;15.496;2023-06-10T13:37:40;100106.47;;;27.57;43.46
25722;BME280;13578;53.450;15.496;2023-06-10T13:40:41;100103.38;;;27.47;44.01
25722;BME280;13578;53.450;15.496;2023-06-10T13:43:42;100095.81;;;27.47;44.34
25722;BME280;13578;53.450;15.496;2023-06-10T13:46:43;100115.16;;;27.01;43.95
25722;BME280;13578;53.450;15.496;2023-06-10T13:49:44;100101.88;;;26.90;44.78
25722;BME280;13578;53.450;15.496;2023-06-10T13:52:44;100100.72;;;26.79;43.09
25722;BME280;13578;53.450;15.496;2023-06-10T13:55:45;100107.16;;;26.98;44.31
25722;BME280;13578;53.450;15.496;2023-06-10T13:58:45;100101.41;;;26.93;43.24
25722;BME280;13578;53.450;15.496;2023-06-10T14:01:46;100082.19;;;26.71;42.79
25722;BME280;13578;53.450;15.496;2023-06-10T14:04:47;100094.31;;;26.90;43.53
25722;BME280;13578;53.450;15.496;2023-06-10T14:07:48;100088.94;;;27.01;43.30
25722;BME280;13578;53.450;15.496;2023-06-10T14:10:48;100096.91;;;27.04;43.53
25722;BME280;13578;53.450;15.496;2023-06-10T14:13:50;100090.41;;;27.03;42.92
25722;BME280;13578;53.450;15.496;2023-06-10T14:16:51;100095.91;;;26.98;43.94
25722;BME280;13578;53.450;15.496;2023-06-10T14:19:52;100098.72;;;26.98;44.96
25722;BME280;13578;53.450;15.496;2023-06-10T14:22:52;100098.16;;;26.77;43.78
25722;BME280;13578;53.450;15.496;2023-06-10T14:25:53;100087.78;;;26.90;43.35
25722;BME280;13578;53.450;15.496;2023-06-10T14:28:53;100080.88;;;26.74;43.01
25722;BME280;13578;53.450;15.496;2023-06-10T14:31:55;100089.38;;;26.67;43.70
25722;BME280;13578;53.450;15.496;2023-06-10T14:34:55;100092.16;;;26.55;44.10
25722;BME280;13578;53.450;15.496;2023-06-10T14:37:56;100083.31;;;26.52;43.50
25722;BME280;13578;53.450;15.496;2023-06-10T14:40:57;100091.94;;;26.57;44.83
25722;BME280;13578;53.450;15.496;2023-06-10T14:43:58;100099.47;;;26.75;44.60
25722;BME280;13578;53.450;15.496;2023-06-10T14:46:59;100090.47;;;26.85;43.68
25722;BME280;13578;53.450;15.496;2023-06-10T14:49:59;100085.19;;;26.76;43.25
25722;BME280;13578;53.450;15.496;2023-06-10T14:53:00;100067.19;;;26.47;42.08
25722;BME280;13578;53.450;15.496;2023-06-10T14:56:01;100080.19;;;26.60;43.31
25722;BME280;13578;53.450;15.496;2023-06-10T14:59:01;100078.25;;;26.42;42.85
25722;BME280;13578;53.450;15.496;2023-06-10T15:02:02;100080.53;;;26.33;43.04
25722;BME280;13578;53.450;15.496;2023-06-10T15:05:03;100083.69;;;26.25;43.03
25722;BME280;13578;53.450;15.496;2023-06-10T15:08:05;100088.53;;;26.18;43.58
25722;BME280;13578;53.450;15.496;2023-06-10T15:11:06;100087.56;;;26.24;43.93
25722;BME280;13578;53.450;15.496;2023-06-10T15:14:07;100084.56;;;26.00;43.07
25722;BME280;13578;53.450;15.496;2023-06-10T15:17:09;100084.13;;;26.22;43.86
25722;BME280;13578;53.450;15.496;2023-06-10T15:20:10;100085.41;;;26.26;43.92
25722;BME280;13578;53.450;15.496;2023-06-10T15:23:11;100087.75;;;26.10;42.88
25722;BME280;13578;53.450;15.496;2023-06-10T15:26:12;100086.94;;;26.03;42.77
25722;BME280;13578;53.450;15.496;2023-06-10T15:29:13;100082.78;;;25.87;42.03
25722;BME280;13578;53.450;15.496;2023-06-10T15:32:14;100081.47;;;25.90;42.63
25722;BME280;13578;53.450;15.496;2023-06-10T15:35:14;100094.56;;;25.77;41.33
25722;BME280;13578;53.450;15.496;2023-06-10T15:38:15;100095.41;;;25.78;42.19
25722;BME280;13578;53.450;15.496;2023-06-10T15:41:16;100090.25;;;25.75;41.05
25722;BME280;13578;53.450;15.496;2023-06-10T15:44:17;100078.06;;;25.62;40.46
25722;BME280;13578;53.450;15.496;2023-06-10T15:47:17;100072.69;;;25.61;40.05
25722;BME280;13578;53.450;15.496;2023-06-10T15:50:18;100070.59;;;25.49;39.48